sensor_id;sensor_type;location;lat;lon;timestamp;pressure;altitude;pressure_sealevel;temperature;humidity
67109;BME280;54027;50.786;7.058;2023-04-30T00:01:25;101701.72;;;9.08;97.27
67109;BME280;54027;50.786;7.058;2023-04-30T00:03:50;101699.09;;;9.03;97.24
67109;BME280;54027;50.786;7.058;2023-04-30T00:06:16;101699.06;;;8.99;97.54
67109;BME280;54027;50.786;7.058;2023-04-30T00:08:41;101701.59;;;8.96;97.55
67109;BME280;54027;50.786;7.058;2023-04-30T00:11:06;101704.13;;;8.93;97.84
67109;BME280;54027;50.786;7.058;2023-04-30T00:13:32;101709.25;;;8.91;98.29
67109;BME280;54027;50.786;7.058;2023-04-30T00:15:57;101706.63;;;8.88;97.64
67109;BME280;54027;50.786;7.058;2023-04-30T00:18:22;101704.84;;;8.84;97.81
67109;BME280;54027;50.786;7.058;2023-04-30T00:20:48;101705.66;;;8.80;98.54
67109;BME280;54027;50.786;7.058;2023-04-30T00:23:16;101704.75;;;8.77;98.54
67109;BME280;54027;50.786;7.058;2023-04-30T00:25:41;101707.28;;;8.72;98.22
67109;BME280;54027;50.786;7.058;2023-04-30T00:28:06;101707.25;;;8.69;98.22
67109;BME280;54027;50.786;7.058;2023-04-30T00:30:32;101722.66;;;8.66;98.75
67109;BME280;54027;50.786;7.058;2023-04-30T00:32:57;101719.19;;;8.64;98.68
67109;BME280;54027;50.786;7.058;2023-04-30T00:35:22;101714.84;;;8.62;98.58
67109;BME280;54027;50.786;7.058;2023-04-30T00:37:48;101717.41;;;8.60;98.65
67109;BME280;54027;50.786;7.058;2023-04-30T00:40:13;101720.78;;;8.56;98.20
67109;BME280;54027;50.786;7.058;2023-04-30T00:42:39;101718.16;;;8.54;98.15
67109;BME280;54027;50.786;7.058;2023-04-30T00:45:04;101726.66;;;8.47;98.31
67109;BME280;54027;50.786;7.058;2023-04-30T00:47:30;101724.00;;;8.43;98.37
67109;BME280;54027;50.786;7.058;2023-04-30T00:49:56;101726.53;;;8.40;98.75
67109;BME280;54027;50.786;7.058;2023-04-30T00:52:22;101721.31;;;8.37;98.31
67109;BME280;54027;50.786;7.058;2023-04-30T00:54:48;101723.84;;;8.32;98.65
67109;BME280;54027;50.786;7.058;2023-04-30T00:57:14;101725.41;;;8.23;98.99
67109;BME280;54027;50.786;7.058;2023-04-30T00:59:40;101725.13;;;8.08;99.54
67109;BME280;54027;50.786;7.058;2023-04-30T01:02:06;101725.84;;;7.99;100.00
67109;BME280;54027;50.786;7.058;2023-04-30T01:04:32;101729.19;;;7.93;100.00
67109;BME280;54027;50.786;7.058;2023-04-30T01:06:58;101722.19;;;7.85;100.00
67109;BME280;54027;50.786;7.058;2023-04-30T01:09:27;101722.06;;;7.80;100.00
67109;BME280;54027;50.786;7.058;2023-04-30T01:11:59;101726.31;;;7.77;100.00
67109;BME280;54027;50.786;7.058;2023-04-30T01:14:30;101724.53;;;7.73;100.00
67109;BME280;54027;50.786;7.058;2023-04-30T01:19:43;101720.78;;;7.57;100.00
67109;BME280;54027;50.786;7.058;2023-04-30T01:25:11;101727.44;;;7.44;100.00
67109;BME280;54027;50.786;7.058;2023-04-30T01:30:32;101728.22;;;7.42;100.00
67109;BME280;54027;50.786;7.058;2023-04-30T01:32:58;101723.06;;;7.42;100.00
67109;BME280;54027;50.786;7.058;2023-04-30T01:35:38;101729.06;;;7.41;100.00
67109;BME280;54027;50.786;7.058;2023-04-30T01:41:04;101726.38;;;7.35;100.00
67109;BME280;54027;50.786;7.058;2023-04-30T01:43:57;101723.81;;;7.35;100.00
67109;BME280;54027;50.786;7.058;2023-04-30T01:46:29;101721.22;;;7.35;100.00
67109;BME280;54027;50.786;7.058;2023-04-30T01:51:46;101722.19;;;7.40;100.00
67109;BME280;54027;50.786;7.058;2023-04-30T01:57:02;101723.94;;;7.41;100.00
67109;BME280;54027;50.786;7.058;2023-04-30T01:59:32;101722.19;;;7.40;100.00
67109;BME280;54027;50.786;7.058;2023-04-30T02:01:59;101720.44;;;7.39;100.00
67109;BME280;54027;50.786;7.058;2023-04-30T02:04:24;101723.88;;;7.39;100.00
67109;BME280;54027;50.786;7.058;2023-04-30T02:06:49;101719.59;;;7.38;100.00
67109;BME280;54027;50.786;7.058;2023-04-30T02:09:15;101722.94;;;7.36;100.00
67109;BME280;54027;50.786;7.058;2023-04-30T02:11:40;101737.66;;;7.43;100.00
67109;BME280;54027;50.786;7.058;2023-04-30T02:14:06;101736.09;;;7.51;100.00
67109;BME280;54027;50.786;7.058;2023-04-30T02:16:31;101733.63;;;7.56;100.00
67109;BME280;54027;50.786;7.058;2023-04-30T02:18:56;101737.03;;;7.53;100.00
67109;BME280;54027;50.786;7.058;2023-04-30T02:21:22;101733.47;;;7.47;100.00
67109;BME280;54027;50.786;7.058;2023-04-30T02:23:47;101734.59;;;7.17;100.00
67109;BME280;54027;50.786;7.058;2023-04-30T02:26:13;101738.28;;;6.91;100.00
67109;BME280;54027;50.786;7.058;2023-04-30T02:28:38;101735.16;;;6.67;100.00
67109;BME280;54027;50.786;7.058;2023-04-30T02:31:04;101741.78;;;6.59;100.00
67109;BME280;54027;50.786;7.058;2023-04-30T02:33:30;101745.88;;;6.51;100.00
67109;BME280;54027;50.786;7.058;2023-04-30T02:35:57;101745.50;;;6.34;100.00
67109;BME280;54027;50.786;7.058;2023-04-30T02:38:22;101744.56;;;6.30;100.00
67109;BME280;54027;50.786;7.058;2023-04-30T02:40:48;101745.34;;;6.28;100.00
67109;BME280;54027;50.786;7.058;2023-04-30T02:43:13;101747.84;;;6.26;100.00
67109;BME280;54027;50.786;7.058;2023-04-30T02:45:38;101753.88;;;6.27;100.00
67109;BME280;54027;50.786;7.058;2023-04-30T02:48:04;101754.00;;;6.31;100.00
67109;BME280;54027;50.786;7.058;2023-04-30T02:50:29;101754.00;;;6.31;100.00
67109;BME280;54027;50.786;7.058;2023-04-30T02:52:55;101755.69;;;6.31;100.00
67109;BME280;54027;50.786;7.058;2023-04-30T02:55:20;101753.06;;;6.29;100.00
67109;BME280;54027;50.786;7.058;2023-04-30T02:57:45;101753.84;;;6.25;100.00
67109;BME280;54027;50.786;7.058;2023-04-30T03:00:11;101752.03;;;6.23;100.00
67109;BME280;54027;50.786;7.058;2023-04-30T03:02:37;101746.88;;;6.20;100.00
67109;BME280;54027;50.786;7.058;2023-04-30T03:05:03;101754.50;;;6.18;100.00
67109;BME280;54027;50.786;7.058;2023-04-30T03:07:28;101751.13;;;6.19;100.00
67109;BME280;54027;50.786;7.058;2023-04-30T03:09:53;101753.78;;;6.22;100.00
67109;BME280;54027;50.786;7.058;2023-04-30T03:12:19;101758.06;;;6.23;100.00
67109;BME280;54027;50.786;7.058;2023-04-30T03:14:44;101752.03;;;6.23;100.00
67109;BME280;54027;50.786;7.058;2023-04-30T03:17:09;101755.50;;;6.23;100.00
67109;BME280;54027;50.786;7.058;2023-04-30T03:19:35;101753.78;;;6.24;100.00
67109;BME280;54027;50.786;7.058;2023-04-30T03:22:00;101746.22;;;6.28;100.00
67109;BME280;54027;50.786;7.058;2023-04-30T03:24:26;101743.03;;;6.39;100.00
67109;BME280;54027;50.786;7.058;2023-04-30T03:26:51;101746.53;;;6.42;100.00
67109;BME280;54027;50.786;7.058;2023-04-30T03:29:16;101742.22;;;6.41;100.00
67109;BME280;54027;50.786;7.058;2023-04-30T03:31:42;101739.72;;;6.43;100.00
67109;BME280;54027;50.786;7.058;2023-04-30T03:34:08;101744.13;;;6.48;100.00
67109;BME280;54027;50.786;7.058;2023-04-30T03:36:33;101735.75;;;6.55;100.00
67109;BME280;54027;50.786;7.058;2023-04-30T03:38:59;101738.53;;;6.64;100.00
67109;BME280;54027;50.786;7.058;2023-04-30T03:41:24;101743.88;;;6.75;100.00
67109;BME280;54027;50.786;7.058;2023-04-30T03:43:50;101733.78;;;6.82;100.00
67109;BME280;54027;50.786;7.058;2023-04-30T03:46:15;101734.03;;;6.95;100.00
67109;BME280;54027;50.786;7.058;2023-04-30T03:48:40;101740.31;;;7.06;100.00
67109;BME280;54027;50.786;7.058;2023-04-30T03:51:06;101749.13;;;7.17;100.00
67109;BME280;54027;50.786;7.058;2023-04-30T03:53:31;101744.19;;;7.26;100.00
67109;BME280;54027;50.786;7.058;2023-04-30T03:55:57;101736.72;;;7.38;100.00
67109;BME280;54027;50.786;7.058;2023-04-30T03:58:23;101741.19;;;7.47;100.00
67109;BME280;54027;50.786;7.058;2023-04-30T04:00:48;101742.94;;;7.51;100.00
67109;BME280;54027;50.786;7.058;2023-04-30T04:03:14;101738.66;;;7.50;100.00
67109;BME280;54027;50.786;7.058;2023-04-30T04:05:40;101741.75;;;7.32;100.00
67109;BME280;54027;50.786;7.058;2023-04-30T04:08:06;101750.72;;;7.13;100.00
67109;BME280;54027;50.786;7.058;2023-04-30T04:10:32;101750.44;;;7.00;100.00
67109;BME280;54027;50.786;7.058;2023-04-30T04:12:58;101745.13;;;6.92;100.00
67109;BME280;54027;50.786;7.058;2023-04-30T04:15:24;101751.94;;;6.90;100.00
67109;BME280;54027;50.786;7.058;2023-04-30T04:17:49;101745.91;;;6.88;100.00
67109;BME280;54027;50.786;7.058;2023-04-30T04:20:15;101746.06;;;6.94;100.00
67109;BME280;54027;50.786;7.058;2023-04-30T04:22:41;101747.81;;;6.97;100.00
67109;BME280;54027;50.786;7.058;2023-04-30T04:25:07;101752.22;;;7.02;100.00
67109;BME280;54027;50.786;7.058;2023-04-30T04:27:33;101749.72;;;7.05;100.00
67109;BME280;54027;50.786;7.058;2023-04-30T04:29:59;101757.44;;;7.07;100.00
67109;BME280;54027;50.786;7.058;2023-04-30T04:32:24;101751.44;;;7.06;100.00
67109;BME280;54027;50.786;7.058;2023-04-30T04:34:49;101759.19;;;7.08;100.00
67109;BME280;54027;50.786;7.058;2023-04-30T04:37:15;101755.69;;;7.04;100.00
67109;BME280;54027;50.786;7.058;2023-04-30T04:39:41;101756.56;;;7.05;100.00
67109;BME280;54027;50.786;7.058;2023-04-30T04:42:07;101760.88;;;7.07;100.00
67109;BME280;54027;50.786;7.058;2023-04-30T04:44:32;101758.38;;;7.10;100.00
67109;BME280;54027;50.786;7.058;2023-04-30T04:46:58;101765.34;;;7.14;100.00
67109;BME280;54027;50.786;7.058;2023-04-30T04:49:23;101764.63;;;7.20;100.00
67109;BME280;54027;50.786;7.058;2023-04-30T04:51:48;101762.19;;;7.27;100.00
67109;BME280;54027;50.786;7.058;2023-04-30T04:54:14;101758.88;;;7.31;100.00
67109;BME280;54027;50.786;7.058;2023-04-30T04:56:39;101763.88;;;7.25;100.00
67109;BME280;54027;50.786;7.058;2023-04-30T04:59:04;101769.00;;;7.24;100.00
67109;BME280;54027;50.786;7.058;2023-04-30T05:01:30;101771.44;;;7.18;100.00
67109;BME280;54027;50.786;7.058;2023-04-30T05:03:55;101767.09;;;7.15;100.00
67109;BME280;54027;50.786;7.058;2023-04-30T05:06:21;101771.22;;;7.10;100.00
67109;BME280;54027;50.786;7.058;2023-04-30T05:08:46;101774.63;;;7.09;100.00
67109;BME280;54027;50.786;7.058;2023-04-30T05:11:11;101773.75;;;7.07;100.00
67109;BME280;54027;50.786;7.058;2023-04-30T05:13:37;101777.25;;;7.11;100.00
67109;BME280;54027;50.786;7.058;2023-04-30T05:16:02;101774.69;;;7.11;100.00
67109;BME280;54027;50.786;7.058;2023-04-30T05:18:28;101780.00;;;7.18;100.00
67109;BME280;54027;50.786;7.058;2023-04-30T05:20:53;101791.28;;;7.23;100.00
67109;BME280;54027;50.786;7.058;2023-04-30T05:23:18;101787.91;;;7.26;100.00
67109;BME280;54027;50.786;7.058;2023-04-30T05:25:44;101798.19;;;7.26;100.00
67109;BME280;54027;50.786;7.058;2023-04-30T05:28:10;101794.59;;;7.19;100.00
67109;BME280;54027;50.786;7.058;2023-04-30T05:30:35;101798.88;;;7.17;100.00
67109;BME280;54027;50.786;7.058;2023-04-30T05:33:01;101801.44;;;7.17;100.00
67109;BME280;54027;50.786;7.058;2023-04-30T05:35:26;101800.63;;;7.20;100.00
67109;BME280;54027;50.786;7.058;2023-04-30T05:37:51;101805.91;;;7.27;100.00
67109;BME280;54027;50.786;7.058;2023-04-30T05:40:17;101812.06;;;7.32;100.00
67109;BME280;54027;50.786;7.058;2023-04-30T05:42:42;101817.91;;;7.27;100.00
67109;BME280;54027;50.786;7.058;2023-04-30T05:45:12;101818.03;;;7.31;100.00
67109;BME280;54027;50.786;7.058;2023-04-30T05:47:39;101822.47;;;7.38;100.00
67109;BME280;54027;50.786;7.058;2023-04-30T05:50:05;101813.09;;;7.42;100.00
67109;BME280;54027;50.786;7.058;2023-04-30T05:52:31;101818.47;;;7.53;100.00
67109;BME280;54027;50.786;7.058;2023-04-30T05:54:57;101816.97;;;7.64;100.00
67109;BME280;54027;50.786;7.058;2023-04-30T05:57:22;101821.44;;;7.71;100.00
67109;BME280;54027;50.786;7.058;2023-04-30T05:59:48;101813.91;;;7.81;100.00
67109;BME280;54027;50.786;7.058;2023-04-30T06:02:13;101815.00;;;7.94;100.00
67109;BME280;54027;50.786;7.058;2023-04-30T06:04:39;101812.63;;;8.05;100.00
67109;BME280;54027;50.786;7.058;2023-04-30T06:07:04;101813.72;;;8.16;100.00
67109;BME280;54027;50.786;7.058;2023-04-30T06:09:30;101811.97;;;8.15;98.50
67109;BME280;54027;50.786;7.058;2023-04-30T06:11:55;101801.84;;;8.24;98.42
67109;BME280;54027;50.786;7.058;2023-04-30T06:14:21;101801.06;;;8.31;98.07
67109;BME280;54027;50.786;7.058;2023-04-30T06:16:47;101796.94;;;8.39;97.91
67109;BME280;54027;50.786;7.058;2023-04-30T06:19:12;101803.91;;;8.46;97.20
67109;BME280;54027;50.786;7.058;2023-04-30T06:21:38;101798.91;;;8.53;96.07
67109;BME280;54027;50.786;7.058;2023-04-30T06:24:03;101796.47;;;8.63;96.00
67109;BME280;54027;50.786;7.058;2023-04-30T06:26:29;101797.41;;;8.66;94.11
67109;BME280;54027;50.786;7.058;2023-04-30T06:28:55;101790.69;;;8.77;94.81
67109;BME280;54027;50.786;7.058;2023-04-30T06:31:21;101791.63;;;8.82;94.43
67109;BME280;54027;50.786;7.058;2023-04-30T06:33:46;101789.09;;;8.85;92.45
67109;BME280;54027;50.786;7.058;2023-04-30T06:36:11;101800.38;;;8.92;93.05
67109;BME280;54027;50.786;7.058;2023-04-30T06:38:37;101799.63;;;9.00;92.89
67109;BME280;54027;50.786;7.058;2023-04-30T06:41:02;101796.28;;;9.06;92.76
67109;BME280;54027;50.786;7.058;2023-04-30T06:43:28;101793.72;;;9.09;92.50
67109;BME280;54027;50.786;7.058;2023-04-30T06:45:53;101800.72;;;9.18;91.90
67109;BME280;54027;50.786;7.058;2023-04-30T06:48:18;101802.44;;;9.16;91.86
67109;BME280;54027;50.786;7.058;2023-04-30T06:50:44;101804.25;;;9.24;91.55
67109;BME280;54027;50.786;7.058;2023-04-30T06:53:13;101806.09;;;9.31;91.93
67109;BME280;54027;50.786;7.058;2023-04-30T06:55:40;101797.56;;;9.37;91.49
67109;BME280;54027;50.786;7.058;2023-04-30T06:58:05;101801.13;;;9.48;91.40
67109;BME280;54027;50.786;7.058;2023-04-30T07:00:32;101797.78;;;9.55;91.92
67109;BME280;54027;50.786;7.058;2023-04-30T07:02:58;101798.81;;;9.67;91.87
67109;BME280;54027;50.786;7.058;2023-04-30T07:05:31;101791.19;;;9.75;90.46
67109;BME280;54027;50.786;7.058;2023-04-30T07:07:57;101788.69;;;9.86;91.63
67109;BME280;54027;50.786;7.058;2023-04-30T07:10:23;101787.09;;;9.94;91.14
67109;BME280;54027;50.786;7.058;2023-04-30T07:12:48;101779.44;;;10.03;89.48
67109;BME280;54027;50.786;7.058;2023-04-30T07:15:14;101783.81;;;10.13;89.92
67109;BME280;54027;50.786;7.058;2023-04-30T07:17:39;101778.59;;;10.05;88.54
67109;BME280;54027;50.786;7.058;2023-04-30T07:20:07;101780.44;;;10.17;88.58
67109;BME280;54027;50.786;7.058;2023-04-30T07:22:33;101787.41;;;10.27;88.45
67109;BME280;54027;50.786;7.058;2023-04-30T07:24:58;101782.31;;;10.35;88.51
67109;BME280;54027;50.786;7.058;2023-04-30T07:27:25;101789.28;;;10.43;88.28
67109;BME280;54027;50.786;7.058;2023-04-30T07:29:50;101790.28;;;10.60;87.55
67109;BME280;54027;50.786;7.058;2023-04-30T07:32:15;101780.84;;;10.68;86.50
67109;BME280;54027;50.786;7.058;2023-04-30T07:34:41;101785.25;;;10.80;86.34
67109;BME280;54027;50.786;7.058;2023-04-30T07:37:10;101787.88;;;10.89;85.45
67109;BME280;54027;50.786;7.058;2023-04-30T07:39:35;101781.03;;;10.91;85.16
67109;BME280;54027;50.786;7.058;2023-04-30T07:42:02;101783.63;;;10.94;84.48
67109;BME280;54027;50.786;7.058;2023-04-30T07:44:29;101779.31;;;10.96;84.60
67109;BME280;54027;50.786;7.058;2023-04-30T07:46:54;101775.97;;;11.09;84.76
67109;BME280;54027;50.786;7.058;2023-04-30T07:49:20;101773.47;;;11.27;84.77
67109;BME280;54027;50.786;7.058;2023-04-30T07:51:45;101764.91;;;11.39;84.80
67109;BME280;54027;50.786;7.058;2023-04-30T07:54:11;101772.75;;;11.56;83.79
67109;BME280;54027;50.786;7.058;2023-04-30T07:56:36;101758.97;;;11.67;81.65
67109;BME280;54027;50.786;7.058;2023-04-30T07:59:02;101756.44;;;11.82;80.70
67109;BME280;54027;50.786;7.058;2023-04-30T08:01:27;101765.06;;;11.94;81.03
67109;BME280;54027;50.786;7.058;2023-04-30T08:03:52;101759.91;;;12.00;80.08
67109;BME280;54027;50.786;7.058;2023-04-30T08:06:18;101759.06;;;12.11;80.09
67109;BME280;54027;50.786;7.058;2023-04-30T08:08:43;101759.06;;;12.20;79.86
67109;BME280;54027;50.786;7.058;2023-04-30T08:11:10;101749.56;;;12.27;78.34
67109;BME280;54027;50.786;7.058;2023-04-30T08:13:35;101745.25;;;12.38;76.43
67109;BME280;54027;50.786;7.058;2023-04-30T08:16:01;101736.59;;;12.48;75.33
67109;BME280;54027;50.786;7.058;2023-04-30T08:18:26;101748.69;;;12.60;75.57
67109;BME280;54027;50.786;7.058;2023-04-30T08:20:51;101746.09;;;12.72;75.29
67109;BME280;54027;50.786;7.058;2023-04-30T08:23:17;101733.97;;;12.84;74.08
67109;BME280;54027;50.786;7.058;2023-04-30T08:25:42;101720.13;;;12.90;72.42
67109;BME280;54027;50.786;7.058;2023-04-30T08:28:07;101686.38;;;12.93;70.14
67109;BME280;54027;50.786;7.058;2023-04-30T08:30:33;101704.53;;;13.04;70.72
67109;BME280;54027;50.786;7.058;2023-04-30T08:32:58;101709.66;;;13.23;70.88
67109;BME280;54027;50.786;7.058;2023-04-30T08:35:24;101711.31;;;13.38;71.06
67109;BME280;54027;50.786;7.058;2023-04-30T08:37:49;101709.50;;;13.50;71.38
67109;BME280;54027;50.786;7.058;2023-04-30T08:40:15;101660.94;;;13.66;68.39
67109;BME280;54027;50.786;7.058;2023-04-30T08:42:46;101653.88;;;13.85;67.63
67109;BME280;54027;50.786;7.058;2023-04-30T08:45:13;101658.22;;;13.83;67.78
67109;BME280;54027;50.786;7.058;2023-04-30T08:47:40;101659.09;;;13.82;66.78
67109;BME280;54027;50.786;7.058;2023-04-30T08:50:06;101665.91;;;13.96;67.90
67109;BME280;54027;50.786;7.058;2023-04-30T08:52:33;101680.59;;;14.02;68.11
67109;BME280;54027;50.786;7.058;2023-04-30T08:55:00;101681.31;;;14.16;67.98
67109;BME280;54027;50.786;7.058;2023-04-30T08:57:26;101683.78;;;14.31;68.58
67109;BME280;54027;50.786;7.058;2023-04-30T08:59:52;101668.09;;;14.48;67.75
67109;BME280;54027;50.786;7.058;2023-04-30T09:02:18;101651.50;;;14.56;66.90
67109;BME280;54027;50.786;7.058;2023-04-30T09:04:44;101659.22;;;14.65;67.50
67109;BME280;54027;50.786;7.058;2023-04-30T09:07:11;101665.25;;;14.69;67.35
67109;BME280;54027;50.786;7.058;2023-04-30T09:09:38;101629.81;;;14.59;65.31
67109;BME280;54027;50.786;7.058;2023-04-30T09:14:39;101599.34;;;14.69;63.67
67109;BME280;54027;50.786;7.058;2023-04-30T09:17:06;101606.13;;;14.79;64.07
67109;BME280;54027;50.786;7.058;2023-04-30T09:19:33;101600.78;;;14.92;63.63
67109;BME280;54027;50.786;7.058;2023-04-30T09:21:58;101617.09;;;15.03;64.27
67109;BME280;54027;50.786;7.058;2023-04-30T09:24:24;101590.28;;;14.97;63.24
67109;BME280;54027;50.786;7.058;2023-04-30T09:26:50;101556.31;;;15.07;62.05
67109;BME280;54027;50.786;7.058;2023-04-30T09:29:16;101524.97;;;15.12;60.12
67109;BME280;54027;50.786;7.058;2023-04-30T09:31:44;101550.06;;;15.19;61.22
67109;BME280;54027;50.786;7.058;2023-04-30T09:34:10;101506.56;;;15.24;59.93
67109;BME280;54027;50.786;7.058;2023-04-30T09:36:36;101522.84;;;15.38;60.13
67109;BME280;54027;50.786;7.058;2023-04-30T09:39:08;101540.78;;;15.58;61.23
67109;BME280;54027;50.786;7.058;2023-04-30T09:41:40;101479.00;;;15.61;57.67
67109;BME280;54027;50.786;7.058;2023-04-30T09:44:06;101459.84;;;15.67;57.47
67109;BME280;54027;50.786;7.058;2023-04-30T09:46:33;101434.44;;;15.78;56.49
67109;BME280;54027;50.786;7.058;2023-04-30T09:49:02;101449.03;;;15.87;56.04
67109;BME280;54027;50.786;7.058;2023-04-30T09:51:28;101454.03;;;15.99;56.17
67109;BME280;54027;50.786;7.058;2023-04-30T09:53:54;101458.09;;;16.12;56.22
67109;BME280;54027;50.786;7.058;2023-04-30T09:56:21;101464.78;;;16.25;56.76
67109;BME280;54027;50.786;7.058;2023-04-30T09:58:52;101442.13;;;16.27;55.99
67109;BME280;54027;50.786;7.058;2023-04-30T10:01:19;101447.22;;;16.33;56.24
67109;BME280;54027;50.786;7.058;2023-04-30T10:03:46;101434.78;;;16.46;55.70
67109;BME280;54027;50.786;7.058;2023-04-30T10:06:13;101408.28;;;16.62;54.00
67109;BME280;54027;50.786;7.058;2023-04-30T10:08:42;101376.28;;;16.56;52.47
67109;BME280;54027;50.786;7.058;2023-04-30T10:11:09;101408.00;;;16.74;53.54
67109;BME280;54027;50.786;7.058;2023-04-30T10:13:42;101403.16;;;16.98;53.06
67109;BME280;54027;50.786;7.058;2023-04-30T10:18:51;101390.31;;;17.22;52.08
67109;BME280;54027;50.786;7.058;2023-04-30T10:21:19;101372.88;;;17.23;51.21
67109;BME280;54027;50.786;7.058;2023-04-30T10:23:47;101346.44;;;17.35;50.34
67109;BME280;54027;50.786;7.058;2023-04-30T10:26:13;101372.06;;;17.53;51.47
67109;BME280;54027;50.786;7.058;2023-04-30T10:28:41;101357.72;;;17.68;51.08
67109;BME280;54027;50.786;7.058;2023-04-30T10:31:07;101343.97;;;17.61;50.00
67109;BME280;54027;50.786;7.058;2023-04-30T10:36:30;101321.63;;;17.51;47.88
67109;BME280;54027;50.786;7.058;2023-04-30T10:38:58;101316.34;;;17.82;48.09
67109;BME280;54027;50.786;7.058;2023-04-30T10:41:25;101294.03;;;17.70;47.06
67109;BME280;54027;50.786;7.058;2023-04-30T10:43:55;101275.81;;;17.96;45.89
67109;BME280;54027;50.786;7.058;2023-04-30T10:46:22;101268.38;;;18.12;45.42
67109;BME280;54027;50.786;7.058;2023-04-30T10:48:49;101300.66;;;18.11;47.02
67109;BME280;54027;50.786;7.058;2023-04-30T10:51:14;101325.38;;;18.30;47.60
67109;BME280;54027;50.786;7.058;2023-04-30T10:53:41;101294.25;;;18.74;46.53
67109;BME280;54027;50.786;7.058;2023-04-30T10:56:06;101236.19;;;18.61;43.24
67109;BME280;54027;50.786;7.058;2023-04-30T10:58:37;101225.91;;;18.57;43.46
67109;BME280;54027;50.786;7.058;2023-04-30T11:01:08;101233.06;;;19.02;43.39
67109;BME280;54027;50.786;7.058;2023-04-30T11:03:35;101242.66;;;19.50;43.31
67109;BME280;54027;50.786;7.058;2023-04-30T11:06:10;101183.06;;;19.77;40.41
67109;BME280;54027;50.786;7.058;2023-04-30T11:08:37;101182.63;;;19.42;40.77
67109;BME280;54027;50.786;7.058;2023-04-30T11:11:03;101192.78;;;19.51;40.97
67109;BME280;54027;50.786;7.058;2023-04-30T11:13:45;101206.31;;;19.41;41.45
67109;BME280;54027;50.786;7.058;2023-04-30T11:16:11;101201.78;;;19.21;41.44
67109;BME280;54027;50.786;7.058;2023-04-30T11:18:42;101184.06;;;19.28;40.51
67109;BME280;54027;50.786;7.058;2023-04-30T11:21:08;101214.13;;;19.18;41.57
67109;BME280;54027;50.786;7.058;2023-04-30T11:23:34;101228.91;;;18.71;42.32
67109;BME280;54027;50.786;7.058;2023-04-30T11:26:00;101249.31;;;18.35;43.31
67109;BME280;54027;50.786;7.058;2023-04-30T11:28:27;101291.34;;;18.30;45.62
67109;BME280;54027;50.786;7.058;2023-04-30T11:30:54;101232.00;;;18.31;42.01
67109;BME280;54027;50.786;7.058;2023-04-30T11:33:21;101223.56;;;18.49;41.91
67109;BME280;54027;50.786;7.058;2023-04-30T11:35:51;101219.50;;;19.15;42.08
67109;BME280;54027;50.786;7.058;2023-04-30T11:38:24;101193.03;;;19.67;41.59
67109;BME280;54027;50.786;7.058;2023-04-30T11:40:50;101175.16;;;20.20;40.28
67109;BME280;54027;50.786;7.058;2023-04-30T11:43:27;101181.31;;;20.81;40.55
67109;BME280;54027;50.786;7.058;2023-04-30T11:46:09;101140.97;;;21.21;38.17
67109;BME280;54027;50.786;7.058;2023-04-30T11:48:36;101151.28;;;20.46;38.83
67109;BME280;54027;50.786;7.058;2023-04-30T11:51:03;101145.78;;;20.12;37.76
67109;BME280;54027;50.786;7.058;2023-04-30T11:53:29;101163.53;;;19.62;38.76
67109;BME280;54027;50.786;7.058;2023-04-30T11:55:55;101190.09;;;19.30;40.20
67109;BME280;54027;50.786;7.058;2023-04-30T11:58:20;101187.81;;;18.97;39.74
67109;BME280;54027;50.786;7.058;2023-04-30T12:00:47;101214.59;;;18.81;41.32
67109;BME280;54027;50.786;7.058;2023-04-30T12:03:14;101231.69;;;18.91;42.13
67109;BME280;54027;50.786;7.058;2023-04-30T12:05:41;101184.34;;;18.97;40.24
67109;BME280;54027;50.786;7.058;2023-04-30T12:08:07;101179.00;;;19.68;40.05
67109;BME280;54027;50.786;7.058;2023-04-30T12:10:34;101155.75;;;20.24;39.34
67109;BME280;54027;50.786;7.058;2023-04-30T12:13:00;101145.53;;;20.38;40.09
67109;BME280;54027;50.786;7.058;2023-04-30T12:15:26;101111.41;;;20.97;37.67
67109;BME280;54027;50.786;7.058;2023-04-30T12:17:53;101082.50;;;21.52;35.51
67109;BME280;54027;50.786;7.058;2023-04-30T12:20:19;101112.84;;;21.77;36.87
67109;BME280;54027;50.786;7.058;2023-04-30T12:22:49;101097.50;;;21.68;35.69
67109;BME280;54027;50.786;7.058;2023-04-30T12:25:16;101113.59;;;21.25;36.85
67109;BME280;54027;50.786;7.058;2023-04-30T12:27:50;101118.63;;;21.48;36.17
67109;BME280;54027;50.786;7.058;2023-04-30T12:30:21;101117.09;;;21.97;36.96
67109;BME280;54027;50.786;7.058;2023-04-30T12:32:49;101096.16;;;21.41;35.09
67109;BME280;54027;50.786;7.058;2023-04-30T12:35:17;101119.38;;;21.88;36.20
67109;BME280;54027;50.786;7.058;2023-04-30T12:37:45;101084.75;;;21.95;34.49
67109;BME280;54027;50.786;7.058;2023-04-30T12:40:12;101108.16;;;21.47;35.85
67109;BME280;54027;50.786;7.058;2023-04-30T12:42:38;101124.63;;;21.33;36.85
67109;BME280;54027;50.786;7.058;2023-04-30T12:45:04;101079.19;;;21.67;34.28
67109;BME280;54027;50.786;7.058;2023-04-30T12:47:30;101085.69;;;21.94;34.64
67109;BME280;54027;50.786;7.058;2023-04-30T12:49:55;101121.38;;;22.00;37.04
67109;BME280;54027;50.786;7.058;2023-04-30T12:52:24;101098.06;;;22.09;34.06
67109;BME280;54027;50.786;7.058;2023-04-30T12:54:51;101049.06;;;21.90;33.13
67109;BME280;54027;50.786;7.058;2023-04-30T12:57:17;101066.22;;;22.31;33.56
67109;BME280;54027;50.786;7.058;2023-04-30T13:02:13;101099.66;;;21.42;35.10
67109;BME280;54027;50.786;7.058;2023-04-30T13:04:40;101094.72;;;21.53;35.16
67109;BME280;54027;50.786;7.058;2023-04-30T13:07:06;101098.94;;;21.57;35.56
67109;BME280;54027;50.786;7.058;2023-04-30T13:09:33;101133.00;;;21.04;37.31
67109;BME280;54027;50.786;7.058;2023-04-30T13:11:58;101130.97;;;20.72;36.87
67109;BME280;54027;50.786;7.058;2023-04-30T13:14:24;101118.16;;;20.44;36.65
67109;BME280;54027;50.786;7.058;2023-04-30T13:16:50;101119.13;;;20.61;36.96